createdAt,value
2018-08-30T00:02:12.831Z,25.39
2018-08-30T00:07:16.806Z,25.34
2018-08-30T00:12:21.785Z,25.35
2018-08-30T00:17:27.398Z,25.29
2018-08-30T00:22:31.294Z,25.25
2018-08-30T00:27:35.270Z,25.23
2018-08-30T00:32:39.112Z,25.17
2018-08-30T00:37:48.093Z,25.12
2018-08-30T00:42:52.001Z,25.07
2018-08-30T00:47:56.484Z,25.02
2018-08-30T00:53:00.234Z,24.99
2018-08-30T00:58:03.998Z,24.94
2018-08-30T01:03:07.731Z,24.93
2018-08-30T01:08:11.362Z,24.89
2018-08-30T01:13:15.030Z,24.85
2018-08-30T01:18:18.777Z,24.83
2018-08-30T01:23:22.420Z,24.78
2018-08-30T01:28:26.124Z,24.76
2018-08-30T01:33:30.659Z,24.73
2018-08-30T01:38:35.301Z,24.69
2018-08-30T01:43:39.946Z,24.70
2018-08-30T01:49:11.668Z,24.66
2018-08-30T01:54:15.522Z,24.65
2018-08-30T01:59:19.263Z,24.62
2018-08-30T02:04:23.002Z,24.59
2018-08-30T02:09:26.946Z,24.58
2018-08-30T02:14:31.002Z,24.54
2018-08-30T02:19:35.188Z,24.53
2018-08-30T02:24:40.029Z,24.50
2018-08-30T02:29:45.861Z,24.52
2018-08-30T02:34:50.461Z,24.49
2018-08-30T02:39:54.247Z,24.48
2018-08-30T02:44:58.031Z,24.46
2018-08-30T02:50:06.364Z,24.45
2018-08-30T02:55:12.081Z,24.44
2018-08-30T03:00:16.199Z,24.44
2018-08-30T03:05:21.077Z,24.43
2018-08-30T03:10:25.087Z,24.42
2018-08-30T03:15:29.897Z,24.42
2018-08-30T03:20:33.753Z,24.41
2018-08-30T03:25:37.566Z,24.39
2018-08-30T03:30:41.383Z,24.40
2018-08-30T03:35:45.391Z,24.37
2018-08-30T03:40:49.033Z,24.36
2018-08-30T03:45:52.878Z,24.28
2018-08-30T03:50:56.789Z,24.21
2018-08-30T03:56:07.773Z,24.20
2018-08-30T04:01:11.650Z,24.17
2018-08-30T04:06:15.432Z,24.18
2018-08-30T04:11:19.612Z,24.14
2018-08-30T04:16:23.470Z,24.11
2018-08-30T04:21:28.348Z,24.09
2018-08-30T04:26:32.270Z,24.07
2018-08-30T04:31:36.600Z,24.05
2018-08-30T04:36:40.466Z,24.04
2018-08-30T04:41:44.427Z,24.04
2018-08-30T04:46:48.223Z,24.02
2018-08-30T04:51:52.146Z,24.03
2018-08-30T04:56:56.104Z,24.04
2018-08-30T05:01:59.959Z,24.02
2018-08-30T05:07:03.776Z,24.01
2018-08-30T05:12:07.677Z,24.00
2018-08-30T05:17:11.534Z,23.98
2018-08-30T05:22:15.419Z,23.98
2018-08-30T05:27:19.308Z,23.97
2018-08-30T05:32:24.200Z,23.97
2018-08-30T05:37:28.142Z,23.96
2018-08-30T05:42:31.981Z,23.96
2018-08-30T05:47:35.879Z,23.97
2018-08-30T05:52:39.724Z,23.98
2018-08-30T05:57:43.535Z,23.97
2018-08-30T06:02:47.380Z,23.96
2018-08-30T06:07:52.033Z,23.96
2018-08-30T06:12:56.195Z,23.96
2018-08-30T06:18:00.217Z,23.93
2018-08-30T06:23:04.089Z,23.94
2018-08-30T06:28:09.320Z,23.94
2018-08-30T06:33:13.200Z,23.91
2018-08-30T06:38:17.759Z,23.92
2018-08-30T06:43:22.426Z,23.91
2018-08-30T06:48:26.271Z,23.92
2018-08-30T06:53:30.351Z,23.91
2018-08-30T06:58:34.575Z,23.90
2018-08-30T07:03:38.384Z,23.89
2018-08-30T07:08:45.120Z,23.62
2018-08-30T07:13:48.819Z,22.41
2018-08-30T07:18:52.461Z,22.03
2018-08-30T07:23:56.717Z,21.99
2018-08-30T07:29:00.395Z,22.01
2018-08-30T07:34:04.023Z,21.85
2018-08-30T07:39:10.354Z,21.68
2018-08-30T07:44:20.749Z,21.45
2018-08-30T07:49:24.287Z,21.32
2018-08-30T07:54:27.989Z,21.36
2018-08-30T07:59:31.906Z,21.33
2018-08-30T08:04:36.267Z,21.32
2018-08-30T08:09:39.951Z,21.34
2018-08-30T08:14:43.603Z,21.31
2018-08-30T08:19:47.318Z,21.27
2018-08-30T08:24:51.013Z,21.26
2018-08-30T08:29:54.661Z,21.06
2018-08-30T08:34:58.434Z,21.00
2018-08-30T08:40:04.290Z,20.87
2018-08-30T08:45:08.077Z,20.89
2018-08-30T08:50:12.703Z,20.80
2018-08-30T08:55:16.337Z,20.79
2018-08-30T09:00:20.028Z,20.68
2018-08-30T09:05:23.698Z,20.81
2018-08-30T09:10:27.398Z,20.54
2018-08-30T09:15:31.051Z,20.63
2018-08-30T09:20:34.662Z,20.82
2018-08-30T09:25:38.374Z,20.71
2018-08-30T09:30:42.005Z,19.67
2018-08-30T09:35:45.704Z,18.91
2018-08-30T09:40:49.669Z,18.75
2018-08-30T09:45:53.638Z,18.70
2018-08-30T09:50:58.446Z,18.66
2018-08-30T09:56:02.391Z,18.55
2018-08-30T10:01:11.877Z,18.26
2018-08-30T10:06:15.733Z,18.06
2018-08-30T10:16:35.026Z,17.53
2018-08-30T10:21:38.792Z,17.49
2018-08-30T10:26:42.352Z,17.69
2018-08-30T10:31:46.122Z,17.42
2018-08-30T10:36:49.763Z,17.61
2018-08-30T10:41:53.414Z,17.89
2018-08-30T10:46:57.134Z,17.80
2018-08-30T10:52:00.806Z,17.82
2018-08-30T10:57:04.487Z,17.83
2018-08-30T11:02:08.252Z,17.66
2018-08-30T11:07:11.966Z,17.89
2018-08-30T11:12:15.696Z,17.70
2018-08-30T11:17:19.492Z,17.65
2018-08-30T11:22:23.267Z,17.50
2018-08-30T11:27:26.986Z,17.37
2018-08-30T11:32:30.710Z,17.48
2018-08-30T11:37:34.821Z,17.41
2018-08-30T11:42:38.548Z,17.28
2018-08-30T11:47:42.442Z,17.25
2018-08-30T11:52:46.251Z,17.18
2018-08-30T11:57:50.362Z,17.13
2018-08-30T12:02:54.526Z,16.99
2018-08-30T12:08:01.525Z,18.76
2018-08-30T12:13:07.847Z,19.74
2018-08-30T12:18:11.670Z,20.22
2018-08-30T12:23:15.389Z,20.57
2018-08-30T12:28:19.190Z,20.82
2018-08-30T12:33:24.191Z,21.01
2018-08-30T12:38:27.964Z,21.14
2018-08-30T12:48:52.605Z,21.31
2018-08-30T12:53:56.612Z,21.48
2018-08-30T12:59:05.543Z,21.58
2018-08-30T13:04:10.364Z,21.65
2018-08-30T13:09:21.512Z,21.75
2018-08-30T13:19:48.044Z,21.98
2018-08-30T13:24:52.650Z,22.10
2018-08-30T13:29:57.415Z,22.19
2018-08-30T13:35:04.508Z,22.28
2018-08-30T13:40:08.800Z,22.32
2018-08-30T13:45:13.019Z,22.38
2018-08-30T13:50:18.000Z,22.38
2018-08-30T13:55:22.828Z,22.40
2018-08-30T14:00:26.980Z,22.44
2018-08-30T14:05:30.247Z,22.46
2018-08-30T14:10:34.441Z,22.47
2018-08-30T14:15:37.790Z,22.52
2018-08-30T14:20:43.436Z,22.54
2018-08-30T14:25:47.160Z,22.57
2018-08-30T14:30:50.891Z,22.59
2018-08-30T14:35:54.576Z,22.61
2018-08-30T14:40:58.277Z,22.66
2018-08-30T14:46:02.013Z,22.71
2018-08-30T14:51:05.805Z,22.76
2018-08-30T14:56:09.602Z,22.77
2018-08-30T15:01:13.413Z,22.81
2018-08-30T15:06:17.253Z,22.87
2018-08-30T15:11:20.993Z,22.93
2018-08-30T15:16:24.828Z,22.99
2018-08-30T15:21:29.745Z,23.05
2018-08-30T15:26:34.266Z,23.09
2018-08-30T15:31:37.889Z,23.14
2018-08-30T15:36:41.594Z,23.20
2018-08-30T15:41:45.294Z,23.23
2018-08-30T15:46:49.070Z,23.26
2018-08-30T15:51:53.472Z,23.33
2018-08-30T15:56:57.144Z,23.36
2018-08-30T16:02:01.320Z,23.41
2018-08-30T16:07:05.056Z,23.43
2018-08-30T16:12:10.397Z,23.50
2018-08-30T16:33:03.034Z,24.00
2018-08-30T16:38:07.789Z,23.63
2018-08-30T16:43:11.879Z,23.80
2018-08-30T16:48:16.072Z,23.85
2018-08-30T16:53:20.439Z,23.81
2018-08-30T16:58:24.214Z,23.79
2018-08-30T17:03:27.971Z,23.87
2018-08-30T17:08:31.834Z,23.89
2018-08-30T17:13:35.707Z,23.88
2018-08-30T17:18:40.021Z,23.88
2018-08-30T17:23:43.913Z,23.94
2018-08-30T17:28:47.770Z,23.95
2018-08-30T17:33:51.880Z,23.90
2018-08-30T17:38:55.921Z,23.91
2018-08-30T17:43:59.862Z,23.95
2018-08-30T17:49:03.857Z,23.94
2018-08-30T17:54:07.811Z,23.91
2018-08-30T17:59:12.871Z,23.93
2018-08-30T18:04:16.609Z,23.86
2018-08-30T18:09:20.392Z,23.88
2018-08-30T18:14:24.323Z,23.93
2018-08-30T18:19:28.155Z,24.01
2018-08-30T18:24:31.962Z,24.01
2018-08-30T18:29:35.805Z,24.03
2018-08-30T18:34:39.610Z,24.04
2018-08-30T18:39:43.437Z,24.10
2018-08-30T18:44:47.230Z,24.15
2018-08-30T18:49:50.946Z,24.12
2018-08-30T18:54:54.653Z,24.09
2018-08-30T18:59:58.330Z,24.09
2018-08-30T19:05:05.956Z,24.10
2018-08-30T19:10:09.756Z,24.11
2018-08-30T19:15:18.810Z,24.13
2018-08-30T19:20:22.514Z,24.12
2018-08-30T19:25:29.784Z,24.13
2018-08-30T19:30:33.959Z,24.13
2018-08-30T19:35:42.835Z,24.13
2018-08-30T19:40:51.802Z,24.15
2018-08-30T19:45:55.579Z,24.16
2018-08-30T19:50:59.230Z,24.19
2018-08-30T19:56:02.924Z,24.21
2018-08-30T20:01:06.751Z,24.21
2018-08-30T20:06:10.360Z,24.26
2018-08-30T20:11:14.184Z,24.27
2018-08-30T20:16:17.933Z,24.27
2018-08-30T20:21:21.632Z,24.28
2018-08-30T20:26:25.891Z,24.27
2018-08-30T20:31:29.491Z,24.26
2018-08-30T20:36:33.137Z,24.25
2018-08-30T20:41:36.760Z,24.27
2018-08-30T20:46:40.428Z,24.27
2018-08-30T20:51:44.037Z,24.26
2018-08-30T20:56:47.795Z,24.36
2018-08-30T21:01:51.592Z,24.37
2018-08-30T21:06:55.317Z,24.36
2018-08-30T21:11:59.090Z,24.36
2018-08-30T21:17:02.795Z,24.40
2018-08-30T21:22:06.647Z,24.40
2018-08-30T21:27:10.324Z,24.42
2018-08-30T21:32:13.979Z,24.42
2018-08-30T21:37:17.769Z,24.41
2018-08-30T21:42:21.431Z,24.42
2018-08-30T21:47:25.090Z,24.44
2018-08-30T21:52:28.774Z,24.45
2018-08-30T21:57:32.496Z,24.45
2018-08-30T22:02:36.288Z,24.44
2018-08-30T22:07:39.928Z,24.49
2018-08-30T22:12:43.826Z,24.52
2018-08-30T22:17:47.519Z,24.49
2018-08-30T22:22:51.163Z,24.47
2018-08-30T22:27:55.786Z,24.48
2018-08-30T22:32:59.393Z,24.53
2018-08-30T22:38:03.126Z,24.50
2018-08-30T22:43:06.813Z,24.48
2018-08-30T22:48:10.496Z,24.48
2018-08-30T22:53:14.150Z,24.54
2018-08-30T22:58:18.088Z,24.51
2018-08-30T23:03:21.761Z,24.57
2018-08-30T23:08:25.558Z,24.54
2018-08-30T23:13:29.389Z,24.54
2018-08-30T23:18:33.064Z,24.54
2018-08-30T23:23:36.741Z,24.54
2018-08-30T23:28:40.299Z,24.54
2018-08-30T23:33:43.943Z,24.52
2018-08-30T23:38:47.954Z,24.51
2018-08-30T23:43:51.640Z,24.54
2018-08-30T23:48:55.303Z,24.56
2018-08-30T23:53:58.945Z,24.55
2018-08-30T23:59:13.599Z,24.56
